sensor_id;sensor_type;location;lat;lon;timestamp;P1;durP1;ratioP1;P2;durP2;ratioP2
66437;SDS011;54537;47.972;11.662;2023-02-28T00:00:06;5.30;;;2.25;;
66437;SDS011;54537;47.972;11.662;2023-02-28T00:02:35;7.53;;;2.58;;
66437;SDS011;54537;47.972;11.662;2023-02-28T00:05:02;5.60;;;2.58;;
66437;SDS011;54537;47.972;11.662;2023-02-28T00:07:30;6.18;;;2.65;;
66437;SDS011;54537;47.972;11.662;2023-02-28T00:09:56;5.70;;;2.15;;
66437;SDS011;54537;47.972;11.662;2023-02-28T00:12:23;7.50;;;2.53;;
66437;SDS011;54537;47.972;11.662;2023-02-28T00:14:49;7.15;;;2.53;;
66437;SDS011;54537;47.972;11.662;2023-02-28T00:17:16;5.35;;;2.13;;
66437;SDS011;54537;47.972;11.662;2023-02-28T00:19:45;9.20;;;2.75;;
66437;SDS011;54537;47.972;11.662;2023-02-28T00:22:12;5.75;;;2.58;;
66437;SDS011;54537;47.972;11.662;2023-02-28T00:24:40;6.45;;;2.80;;
66437;SDS011;54537;47.972;11.662;2023-02-28T00:27:07;9.10;;;2.67;;
66437;SDS011;54537;47.972;11.662;2023-02-28T00:29:33;6.38;;;2.72;;
66437;SDS011;54537;47.972;11.662;2023-02-28T00:32:00;7.55;;;2.72;;
66437;SDS011;54537;47.972;11.662;2023-02-28T00:34:26;5.55;;;2.85;;
66437;SDS011;54537;47.972;11.662;2023-02-28T00:36:53;7.30;;;2.83;;
66437;SDS011;54537;47.972;11.662;2023-02-28T00:39:19;8.52;;;2.67;;
66437;SDS011;54537;47.972;11.662;2023-02-28T00:41:47;6.68;;;3.00;;
66437;SDS011;54537;47.972;11.662;2023-02-28T00:44:14;6.57;;;2.53;;
66437;SDS011;54537;47.972;11.662;2023-02-28T00:46:40;8.13;;;2.90;;
66437;SDS011;54537;47.972;11.662;2023-02-28T00:49:06;10.05;;;3.00;;
66437;SDS011;54537;47.972;11.662;2023-02-28T00:51:33;6.57;;;2.28;;
66437;SDS011;54537;47.972;11.662;2023-02-28T00:53:59;5.38;;;2.58;;
66437;SDS011;54537;47.972;11.662;2023-02-28T00:56:26;6.43;;;2.97;;
66437;SDS011;54537;47.972;11.662;2023-02-28T00:58:54;7.63;;;2.83;;
66437;SDS011;54537;47.972;11.662;2023-02-28T01:01:20;7.28;;;2.70;;
66437;SDS011;54537;47.972;11.662;2023-02-28T01:03:46;6.95;;;2.75;;
66437;SDS011;54537;47.972;11.662;2023-02-28T01:06:13;10.88;;;3.03;;
66437;SDS011;54537;47.972;11.662;2023-02-28T01:08:39;7.00;;;2.95;;
66437;SDS011;54537;47.972;11.662;2023-02-28T01:11:09;7.10;;;2.63;;
66437;SDS011;54537;47.972;11.662;2023-02-28T01:13:36;7.32;;;2.75;;
66437;SDS011;54537;47.972;11.662;2023-02-28T01:16:04;6.68;;;2.72;;
66437;SDS011;54537;47.972;11.662;2023-02-28T01:18:32;9.35;;;2.53;;
66437;SDS011;54537;47.972;11.662;2023-02-28T01:21:02;7.93;;;2.65;;
66437;SDS011;54537;47.972;11.662;2023-02-28T01:23:29;5.93;;;2.60;;
66437;SDS011;54537;47.972;11.662;2023-02-28T01:25:56;7.70;;;2.97;;
66437;SDS011;54537;47.972;11.662;2023-02-28T01:28:22;11.35;;;3.17;;
66437;SDS011;54537;47.972;11.662;2023-02-28T01:30:49;7.97;;;3.08;;
66437;SDS011;54537;47.972;11.662;2023-02-28T01:33:17;8.18;;;2.80;;
66437;SDS011;54537;47.972;11.662;2023-02-28T01:35:43;7.75;;;2.88;;
66437;SDS011;54537;47.972;11.662;2023-02-28T01:38:10;11.93;;;3.70;;
66437;SDS011;54537;47.972;11.662;2023-02-28T01:40:36;6.57;;;2.85;;
66437;SDS011;54537;47.972;11.662;2023-02-28T01:43:04;9.00;;;2.83;;
66437;SDS011;54537;47.972;11.662;2023-02-28T01:45:31;8.02;;;2.92;;
66437;SDS011;54537;47.972;11.662;2023-02-28T01:47:58;7.65;;;2.80;;
66437;SDS011;54537;47.972;11.662;2023-02-28T01:50:30;8.02;;;3.15;;
66437;SDS011;54537;47.972;11.662;2023-02-28T01:52:59;7.68;;;2.97;;
66437;SDS011;54537;47.972;11.662;2023-02-28T01:55:28;6.00;;;2.85;;
66437;SDS011;54537;47.972;11.662;2023-02-28T01:57:56;8.50;;;3.60;;
66437;SDS011;54537;47.972;11.662;2023-02-28T02:00:24;9.70;;;3.40;;
66437;SDS011;54537;47.972;11.662;2023-02-28T02:02:53;7.07;;;2.83;;
66437;SDS011;54537;47.972;11.662;2023-02-28T02:05:22;8.80;;;3.22;;
66437;SDS011;54537;47.972;11.662;2023-02-28T02:07:52;8.80;;;3.33;;
66437;SDS011;54537;47.972;11.662;2023-02-28T02:10:21;7.72;;;3.38;;
66437;SDS011;54537;47.972;11.662;2023-02-28T02:12:58;5.65;;;2.63;;
66437;SDS011;54537;47.972;11.662;2023-02-28T02:15:47;9.25;;;2.95;;
66437;SDS011;54537;47.972;11.662;2023-02-28T02:18:18;9.82;;;3.58;;
66437;SDS011;54537;47.972;11.662;2023-02-28T02:26:50;9.40;;;3.33;;
66437;SDS011;54537;47.972;11.662;2023-02-28T02:29:26;10.02;;;3.08;;
66437;SDS011;54537;47.972;11.662;2023-02-28T02:32:10;11.77;;;3.20;;
66437;SDS011;54537;47.972;11.662;2023-02-28T02:34:51;7.75;;;3.38;;
66437;SDS011;54537;47.972;11.662;2023-02-28T02:37:25;10.20;;;3.30;;
66437;SDS011;54537;47.972;11.662;2023-02-28T02:39:58;7.40;;;3.08;;
66437;SDS011;54537;47.972;11.662;2023-02-28T02:42:29;8.57;;;2.90;;
66437;SDS011;54537;47.972;11.662;2023-02-28T02:47:28;6.80;;;2.85;;
66437;SDS011;54537;47.972;11.662;2023-02-28T02:49:57;7.30;;;2.55;;
66437;SDS011;54537;47.972;11.662;2023-02-28T02:52:28;10.40;;;3.22;;
66437;SDS011;54537;47.972;11.662;2023-02-28T02:54:57;7.80;;;2.67;;
66437;SDS011;54537;47.972;11.662;2023-02-28T02:57:26;8.10;;;3.47;;
66437;SDS011;54537;47.972;11.662;2023-02-28T02:59:55;10.15;;;3.13;;
66437;SDS011;54537;47.972;11.662;2023-02-28T03:02:22;7.03;;;2.83;;
66437;SDS011;54537;47.972;11.662;2023-02-28T03:04:51;9.15;;;3.85;;
66437;SDS011;54537;47.972;11.662;2023-02-28T03:07:20;8.55;;;3.13;;
66437;SDS011;54537;47.972;11.662;2023-02-28T03:09:50;10.18;;;3.60;;
66437;SDS011;54537;47.972;11.662;2023-02-28T03:12:18;7.30;;;3.28;;
66437;SDS011;54537;47.972;11.662;2023-02-28T03:14:48;9.15;;;3.17;;
66437;SDS011;54537;47.972;11.662;2023-02-28T03:17:38;8.13;;;3.55;;
66437;SDS011;54537;47.972;11.662;2023-02-28T03:20:15;9.50;;;3.28;;
66437;SDS011;54537;47.972;11.662;2023-02-28T03:25:27;7.88;;;3.35;;
66437;SDS011;54537;47.972;11.662;2023-02-28T03:27:59;8.65;;;3.45;;
66437;SDS011;54537;47.972;11.662;2023-02-28T03:30:31;13.25;;;3.72;;
66437;SDS011;54537;47.972;11.662;2023-02-28T03:33:03;8.15;;;3.25;;
66437;SDS011;54537;47.972;11.662;2023-02-28T03:35:32;13.20;;;4.55;;
66437;SDS011;54537;47.972;11.662;2023-02-28T03:38:04;10.90;;;3.80;;
66437;SDS011;54537;47.972;11.662;2023-02-28T03:40:33;9.68;;;3.78;;
66437;SDS011;54537;47.972;11.662;2023-02-28T03:43:02;10.25;;;4.40;;
66437;SDS011;54537;47.972;11.662;2023-02-28T03:45:30;11.85;;;4.40;;
66437;SDS011;54537;47.972;11.662;2023-02-28T03:48:00;13.57;;;3.90;;
66437;SDS011;54537;47.972;11.662;2023-02-28T03:50:29;11.40;;;4.18;;
66437;SDS011;54537;47.972;11.662;2023-02-28T03:53:01;10.63;;;4.35;;
66437;SDS011;54537;47.972;11.662;2023-02-28T03:55:32;9.90;;;3.35;;
66437;SDS011;54537;47.972;11.662;2023-02-28T03:58:01;13.73;;;4.72;;
66437;SDS011;54537;47.972;11.662;2023-02-28T04:00:32;14.32;;;4.70;;
66437;SDS011;54537;47.972;11.662;2023-02-28T04:03:00;15.65;;;4.63;;
66437;SDS011;54537;47.972;11.662;2023-02-28T04:05:27;9.40;;;4.13;;
66437;SDS011;54537;47.972;11.662;2023-02-28T04:07:53;10.32;;;4.22;;
66437;SDS011;54537;47.972;11.662;2023-02-28T04:10:22;11.20;;;4.22;;
66437;SDS011;54537;47.972;11.662;2023-02-28T04:12:49;13.63;;;4.45;;
66437;SDS011;54537;47.972;11.662;2023-02-28T04:15:15;13.68;;;4.25;;
66437;SDS011;54537;47.972;11.662;2023-02-28T04:17:41;11.18;;;4.25;;
66437;SDS011;54537;47.972;11.662;2023-02-28T04:20:09;10.25;;;4.07;;
66437;SDS011;54537;47.972;11.662;2023-02-28T04:22:36;11.07;;;3.55;;
66437;SDS011;54537;47.972;11.662;2023-02-28T04:25:03;12.00;;;4.90;;
66437;SDS011;54537;47.972;11.662;2023-02-28T04:27:32;10.93;;;4.70;;
66437;SDS011;54537;47.972;11.662;2023-02-28T04:29:59;11.32;;;4.38;;
66437;SDS011;54537;47.972;11.662;2023-02-28T04:32:25;13.93;;;5.07;;
66437;SDS011;54537;47.972;11.662;2023-02-28T04:34:52;12.60;;;4.65;;
66437;SDS011;54537;47.972;11.662;2023-02-28T04:37:18;13.35;;;4.65;;
66437;SDS011;54537;47.972;11.662;2023-02-28T04:39:45;15.13;;;4.72;;
66437;SDS011;54537;47.972;11.662;2023-02-28T04:42:12;10.88;;;4.25;;
66437;SDS011;54537;47.972;11.662;2023-02-28T04:44:40;11.32;;;4.18;;
66437;SDS011;54537;47.972;11.662;2023-02-28T04:47:06;11.93;;;4.60;;
66437;SDS011;54537;47.972;11.662;2023-02-28T04:49:33;15.90;;;6.15;;
66437;SDS011;54537;47.972;11.662;2023-02-28T04:51:59;15.70;;;4.43;;
66437;SDS011;54537;47.972;11.662;2023-02-28T04:54:26;13.57;;;5.05;;
66437;SDS011;54537;47.972;11.662;2023-02-28T04:56:53;14.35;;;5.60;;
66437;SDS011;54537;47.972;11.662;2023-02-28T04:59:19;15.88;;;5.95;;
66437;SDS011;54537;47.972;11.662;2023-02-28T05:01:48;15.75;;;5.43;;
66437;SDS011;54537;47.972;11.662;2023-02-28T05:04:15;16.60;;;5.88;;
66437;SDS011;54537;47.972;11.662;2023-02-28T05:06:41;14.90;;;5.57;;
66437;SDS011;54537;47.972;11.662;2023-02-28T05:09:08;15.35;;;6.05;;
66437;SDS011;54537;47.972;11.662;2023-02-28T05:11:36;16.02;;;6.03;;
66437;SDS011;54537;47.972;11.662;2023-02-28T05:14:04;16.23;;;5.43;;
66437;SDS011;54537;47.972;11.662;2023-02-28T05:16:32;16.88;;;6.05;;
66437;SDS011;54537;47.972;11.662;2023-02-28T05:19:00;17.35;;;5.85;;
66437;SDS011;54537;47.972;11.662;2023-02-28T05:21:27;18.25;;;6.55;;
66437;SDS011;54537;47.972;11.662;2023-02-28T05:23:56;16.55;;;5.60;;
66437;SDS011;54537;47.972;11.662;2023-02-28T05:26:23;18.60;;;7.22;;
66437;SDS011;54537;47.972;11.662;2023-02-28T05:28:50;17.88;;;6.35;;
66437;SDS011;54537;47.972;11.662;2023-02-28T05:31:17;13.93;;;5.18;;
66437;SDS011;54537;47.972;11.662;2023-02-28T05:33:43;16.75;;;5.25;;
66437;SDS011;54537;47.972;11.662;2023-02-28T05:36:11;14.02;;;5.93;;
66437;SDS011;54537;47.972;11.662;2023-02-28T05:38:38;18.23;;;6.57;;
66437;SDS011;54537;47.972;11.662;2023-02-28T05:41:05;19.83;;;6.78;;
66437;SDS011;54537;47.972;11.662;2023-02-28T05:43:32;17.42;;;6.10;;
66437;SDS011;54537;47.972;11.662;2023-02-28T05:45:59;17.38;;;6.22;;
66437;SDS011;54537;47.972;11.662;2023-02-28T05:48:27;18.40;;;6.25;;
66437;SDS011;54537;47.972;11.662;2023-02-28T05:50:54;17.10;;;6.30;;
66437;SDS011;54537;47.972;11.662;2023-02-28T05:53:22;20.00;;;6.93;;
66437;SDS011;54537;47.972;11.662;2023-02-28T05:55:48;23.70;;;7.38;;
66437;SDS011;54537;47.972;11.662;2023-02-28T05:58:15;19.92;;;7.07;;
66437;SDS011;54537;47.972;11.662;2023-02-28T06:00:41;19.77;;;6.82;;
66437;SDS011;54537;47.972;11.662;2023-02-28T06:03:08;23.88;;;6.40;;
66437;SDS011;54537;47.972;11.662;2023-02-28T06:05:34;20.15;;;6.53;;
66437;SDS011;54537;47.972;11.662;2023-02-28T06:08:01;24.10;;;7.70;;
66437;SDS011;54537;47.972;11.662;2023-02-28T06:10:28;23.52;;;8.40;;
66437;SDS011;54537;47.972;11.662;2023-02-28T06:12:55;19.05;;;6.35;;
66437;SDS011;54537;47.972;11.662;2023-02-28T06:15:21;23.25;;;7.60;;
66437;SDS011;54537;47.972;11.662;2023-02-28T06:17:48;22.10;;;6.85;;
66437;SDS011;54537;47.972;11.662;2023-02-28T06:20:14;26.92;;;7.95;;
66437;SDS011;54537;47.972;11.662;2023-02-28T06:22:41;19.83;;;7.13;;
66437;SDS011;54537;47.972;11.662;2023-02-28T06:25:08;23.50;;;8.38;;
66437;SDS011;54537;47.972;11.662;2023-02-28T06:27:37;23.10;;;7.93;;
66437;SDS011;54537;47.972;11.662;2023-02-28T06:30:04;22.10;;;7.63;;
66437;SDS011;54537;47.972;11.662;2023-02-28T06:32:31;20.35;;;7.25;;
66437;SDS011;54537;47.972;11.662;2023-02-28T06:34:57;20.20;;;7.88;;
66437;SDS011;54537;47.972;11.662;2023-02-28T06:37:24;21.15;;;7.15;;
66437;SDS011;54537;47.972;11.662;2023-02-28T06:39:52;28.38;;;8.73;;
66437;SDS011;54537;47.972;11.662;2023-02-28T06:42:18;22.38;;;7.28;;
66437;SDS011;54537;47.972;11.662;2023-02-28T06:44:46;26.25;;;8.55;;
66437;SDS011;54537;47.972;11.662;2023-02-28T06:47:12;23.38;;;7.75;;
66437;SDS011;54537;47.972;11.662;2023-02-28T06:49:39;26.80;;;8.20;;
66437;SDS011;54537;47.972;11.662;2023-02-28T06:52:05;21.95;;;8.73;;
66437;SDS011;54537;47.972;11.662;2023-02-28T06:54:32;23.45;;;9.35;;
66437;SDS011;54537;47.972;11.662;2023-02-28T06:56:58;24.38;;;8.20;;
66437;SDS011;54537;47.972;11.662;2023-02-28T06:59:25;25.02;;;8.40;;
66437;SDS011;54537;47.972;11.662;2023-02-28T07:01:52;23.30;;;8.98;;
66437;SDS011;54537;47.972;11.662;2023-02-28T07:04:20;26.10;;;9.25;;
66437;SDS011;54537;47.972;11.662;2023-02-28T07:06:46;23.15;;;8.50;;
66437;SDS011;54537;47.972;11.662;2023-02-28T07:09:13;25.50;;;9.02;;
66437;SDS011;54537;47.972;11.662;2023-02-28T07:11:40;19.65;;;7.68;;
66437;SDS011;54537;47.972;11.662;2023-02-28T07:14:07;27.95;;;8.95;;
66437;SDS011;54537;47.972;11.662;2023-02-28T07:16:35;25.55;;;9.50;;
66437;SDS011;54537;47.972;11.662;2023-02-28T07:19:02;23.88;;;8.55;;
66437;SDS011;54537;47.972;11.662;2023-02-28T07:21:29;23.95;;;8.57;;
66437;SDS011;54537;47.972;11.662;2023-02-28T07:23:55;25.08;;;9.55;;
66437;SDS011;54537;47.972;11.662;2023-02-28T07:26:22;24.73;;;8.02;;
66437;SDS011;54537;47.972;11.662;2023-02-28T07:28:49;21.60;;;8.82;;
66437;SDS011;54537;47.972;11.662;2023-02-28T07:31:15;23.52;;;8.73;;
66437;SDS011;54537;47.972;11.662;2023-02-28T07:33:43;21.98;;;7.70;;
66437;SDS011;54537;47.972;11.662;2023-02-28T07:36:11;24.75;;;9.98;;
66437;SDS011;54537;47.972;11.662;2023-02-28T07:38:40;23.35;;;8.98;;
66437;SDS011;54537;47.972;11.662;2023-02-28T07:41:07;23.70;;;8.82;;
66437;SDS011;54537;47.972;11.662;2023-02-28T07:43:34;25.25;;;9.07;;
66437;SDS011;54537;47.972;11.662;2023-02-28T07:46:01;22.25;;;8.10;;
66437;SDS011;54537;47.972;11.662;2023-02-28T07:48:28;23.35;;;8.80;;
66437;SDS011;54537;47.972;11.662;2023-02-28T07:50:55;24.65;;;8.88;;
66437;SDS011;54537;47.972;11.662;2023-02-28T07:53:23;24.67;;;9.40;;
66437;SDS011;54537;47.972;11.662;2023-02-28T07:55:49;22.92;;;8.82;;
66437;SDS011;54537;47.972;11.662;2023-02-28T07:58:16;24.23;;;10.60;;
66437;SDS011;54537;47.972;11.662;2023-02-28T08:00:42;25.02;;;8.95;;
66437;SDS011;54537;47.972;11.662;2023-02-28T08:03:09;26.25;;;9.30;;
66437;SDS011;54537;47.972;11.662;2023-02-28T08:05:38;27.30;;;9.75;;
66437;SDS011;54537;47.972;11.662;2023-02-28T08:08:04;19.48;;;7.72;;
66437;SDS011;54537;47.972;11.662;2023-02-28T08:10:32;25.80;;;9.95;;
66437;SDS011;54537;47.972;11.662;2023-02-28T08:12:59;25.13;;;9.00;;
66437;SDS011;54537;47.972;11.662;2023-02-28T08:15:26;18.83;;;7.10;;
66437;SDS011;54537;47.972;11.662;2023-02-28T08:17:52;24.48;;;8.75;;
66437;SDS011;54537;47.972;11.662;2023-02-28T08:20:21;27.67;;;10.48;;
66437;SDS011;54537;47.972;11.662;2023-02-28T08:22:47;26.17;;;9.20;;
66437;SDS011;54537;47.972;11.662;2023-02-28T08:25:14;26.90;;;10.02;;
66437;SDS011;54537;47.972;11.662;2023-02-28T08:27:42;24.15;;;8.23;;
66437;SDS011;54537;47.972;11.662;2023-02-28T08:30:09;26.38;;;9.60;;
66437;SDS011;54537;47.972;11.662;2023-02-28T08:32:37;29.63;;;10.10;;
66437;SDS011;54537;47.972;11.662;2023-02-28T08:35:03;26.25;;;9.13;;
66437;SDS011;54537;47.972;11.662;2023-02-28T08:37:30;25.90;;;9.18;;
66437;SDS011;54537;47.972;11.662;2023-02-28T08:39:57;21.88;;;9.00;;
66437;SDS011;54537;47.972;11.662;2023-02-28T08:42:23;25.30;;;9.80;;
66437;SDS011;54537;47.972;11.662;2023-02-28T08:44:51;25.10;;;10.02;;
66437;SDS011;54537;47.972;11.662;2023-02-28T08:47:18;26.33;;;9.25;;
66437;SDS011;54537;47.972;11.662;2023-02-28T08:49:44;22.10;;;8.73;;
66437;SDS011;54537;47.972;11.662;2023-02-28T08:52:11;24.52;;;9.82;;
66437;SDS011;54537;47.972;11.662;2023-02-28T08:54:37;23.67;;;9.38;;
66437;SDS011;54537;47.972;11.662;2023-02-28T08:57:04;21.75;;;8.57;;
66437;SDS011;54537;47.972;11.662;2023-02-28T08:59:30;23.55;;;9.10;;
66437;SDS011;54537;47.972;11.662;2023-02-28T09:01:58;23.65;;;8.85;;
66437;SDS011;54537;47.972;11.662;2023-02-28T09:04:25;25.73;;;9.25;;
66437;SDS011;54537;47.972;11.662;2023-02-28T09:06:51;27.02;;;9.00;;
66437;SDS011;54537;47.972;11.662;2023-02-28T09:09:18;27.35;;;8.98;;
66437;SDS011;54537;47.972;11.662;2023-02-28T09:11:44;24.35;;;8.93;;
66437;SDS011;54537;47.972;11.662;2023-02-28T09:14:11;24.50;;;9.48;;
66437;SDS011;54537;47.972;11.662;2023-02-28T09:16:37;22.50;;;8.43;;
66437;SDS011;54537;47.972;11.662;2023-02-28T09:19:05;20.40;;;7.85;;
66437;SDS011;54537;47.972;11.662;2023-02-28T09:21:31;23.13;;;9.02;;
66437;SDS011;54537;47.972;11.662;2023-02-28T09:23:58;26.23;;;9.30;;
66437;SDS011;54537;47.972;11.662;2023-02-28T09:26:25;23.52;;;8.98;;
66437;SDS011;54537;47.972;11.662;2023-02-28T09:28:53;21.48;;;8.93;;
66437;SDS011;54537;47.972;11.662;2023-02-28T09:31:21;24.00;;;9.63;;
66437;SDS011;54537;47.972;11.662;2023-02-28T09:33:50;21.00;;;8.95;;
66437;SDS011;54537;47.972;11.662;2023-02-28T09:36:18;26.08;;;9.35;;
66437;SDS011;54537;47.972;11.662;2023-02-28T09:38:45;24.50;;;9.68;;
66437;SDS011;54537;47.972;11.662;2023-02-28T09:41:13;24.60;;;9.68;;
66437;SDS011;54537;47.972;11.662;2023-02-28T09:43:40;24.35;;;9.35;;
66437;SDS011;54537;47.972;11.662;2023-02-28T09:46:14;24.27;;;9.15;;
66437;SDS011;54537;47.972;11.662;2023-02-28T09:49:01;22.70;;;9.05;;
66437;SDS011;54537;47.972;11.662;2023-02-28T09:54:17;30.30;;;9.63;;
66437;SDS011;54537;47.972;11.662;2023-02-28T09:56:45;25.83;;;9.40;;
66437;SDS011;54537;47.972;11.662;2023-02-28T09:59:18;27.30;;;9.65;;
66437;SDS011;54537;47.972;11.662;2023-02-28T10:01:54;19.27;;;8.40;;
66437;SDS011;54537;47.972;11.662;2023-02-28T10:04:32;23.55;;;8.95;;
66437;SDS011;54537;47.972;11.662;2023-02-28T10:07:06;25.15;;;9.40;;
66437;SDS011;54537;47.972;11.662;2023-02-28T10:09:44;23.40;;;8.50;;
66437;SDS011;54537;47.972;11.662;2023-02-28T10:12:11;24.38;;;9.93;;
66437;SDS011;54537;47.972;11.662;2023-02-28T10:14:39;24.50;;;8.48;;
66437;SDS011;54537;47.972;11.662;2023-02-28T10:17:11;22.73;;;9.05;;
66437;SDS011;54537;47.972;11.662;2023-02-28T10:19:40;27.25;;;9.77;;
66437;SDS011;54537;47.972;11.662;2023-02-28T10:22:10;20.35;;;8.57;;
66437;SDS011;54537;47.972;11.662;2023-02-28T10:24:39;24.48;;;9.43;;
66437;SDS011;54537;47.972;11.662;2023-02-28T10:27:12;22.58;;;9.10;;
66437;SDS011;54537;47.972;11.662;2023-02-28T10:29:40;26.67;;;9.50;;
66437;SDS011;54537;47.972;11.662;2023-02-28T10:32:09;28.63;;;10.00;;
66437;SDS011;54537;47.972;11.662;2023-02-28T10:34:37;22.77;;;9.32;;
66437;SDS011;54537;47.972;11.662;2023-02-28T10:37:03;21.10;;;8.20;;
66437;SDS011;54537;47.972;11.662;2023-02-28T10:39:35;24.00;;;8.63;;
66437;SDS011;54537;47.972;11.662;2023-02-28T10:42:03;23.13;;;8.88;;
66437;SDS011;54537;47.972;11.662;2023-02-28T10:44:30;20.70;;;8.60;;
66437;SDS011;54537;47.972;11.662;2023-02-28T10:46:56;25.48;;;8.88;;
66437;SDS011;54537;47.972;11.662;2023-02-28T10:49:23;20.45;;;8.88;;
66437;SDS011;54537;47.972;11.662;2023-02-28T10:51:52;18.48;;;8.38;;
66437;SDS011;54537;47.972;11.662;2023-02-28T10:54:22;22.02;;;9.10;;
66437;SDS011;54537;47.972;11.662;2023-02-28T10:57:17;24.55;;;9.45;;
66437;SDS011;54537;47.972;11.662;2023-02-28T10:59:44;24.80;;;9.57;;
66437;SDS011;54537;47.972;11.662;2023-02-28T11:02:29;21.33;;;8.90;;
66437;SDS011;54537;47.972;11.662;2023-02-28T11:04:57;25.38;;;9.80;;
66437;SDS011;54537;47.972;11.662;2023-02-28T11:07:25;23.95;;;8.90;;
66437;SDS011;54537;47.972;11.662;2023-02-28T11:09:53;21.00;;;8.15;;
66437;SDS011;54537;47.972;11.662;2023-02-28T11:12:23;20.48;;;8.55;;
66437;SDS011;54537;47.972;11.662;2023-02-28T11:14:52;26.67;;;10.05;;
66437;SDS011;54537;47.972;11.662;2023-02-28T11:17:20;25.60;;;10.50;;
66437;SDS011;54537;47.972;11.662;2023-02-28T11:19:50;21.92;;;8.90;;
66437;SDS011;54537;47.972;11.662;2023-02-28T11:22:18;22.23;;;9.88;;
66437;SDS011;54537;47.972;11.662;2023-02-28T11:24:47;24.80;;;9.43;;
66437;SDS011;54537;47.972;11.662;2023-02-28T11:27:33;24.38;;;9.90;;
66437;SDS011;54537;47.972;11.662;2023-02-28T11:30:31;26.92;;;9.80;;
66437;SDS011;54537;47.972;11.662;2023-02-28T11:33:00;19.60;;;8.10;;
66437;SDS011;54537;47.972;11.662;2023-02-28T11:35:28;21.55;;;9.07;;
66437;SDS011;54537;47.972;11.662;2023-02-28T11:37:57;23.90;;;9.27;;
66437;SDS011;54537;47.972;11.662;2023-02-28T11:40:25;19.23;;;7.13;;
66437;SDS011;54537;47.972;11.662;2023-02-28T11:42:59;22.40;;;9.05;;
66437;SDS011;54537;47.972;11.662;2023-02-28T11:45:37;23.95;;;9.23;;
66437;SDS011;54537;47.972;11.662;2023-02-28T11:48:11;19.35;;;8.35;;
66437;SDS011;54537;47.972;11.662;2023-02-28T11:50:46;19.63;;;8.27;;
66437;SDS011;54537;47.972;11.662;2023-02-28T11:53:20;19.08;;;7.50;;
66437;SDS011;54537;47.972;11.662;2023-02-28T11:55:51;38.50;;;13.38;;
66437;SDS011;54537;47.972;11.662;2023-02-28T11:58:27;24.10;;;9.40;;
66437;SDS011;54537;47.972;11.662;2023-02-28T12:01:07;27.58;;;10.40;;
66437;SDS011;54537;47.972;11.662;2023-02-28T12:03:42;24.23;;;9.60;;
66437;SDS011;54537;47.972;11.662;2023-02-28T12:06:15;20.05;;;7.75;;
66437;SDS011;54537;47.972;11.662;2023-02-28T12:08:49;20.40;;;8.93;;
66437;SDS011;54537;47.972;11.662;2023-02-28T12:11:25;19.50;;;8.07;;
66437;SDS011;54537;47.972;11.662;2023-02-28T12:14:00;22.27;;;8.70;;
66437;SDS011;54537;47.972;11.662;2023-02-28T12:16:38;18.13;;;8.38;;
66437;SDS011;54537;47.972;11.662;2023-02-28T12:19:13;29.50;;;9.32;;
66437;SDS011;54537;47.972;11.662;2023-02-28T12:21:47;18.13;;;8.30;;
66437;SDS011;54537;47.972;11.662;2023-02-28T12:24:28;21.52;;;9.63;;
66437;SDS011;54537;47.972;11.662;2023-02-28T12:27:03;19.83;;;8.60;;
66437;SDS011;54537;47.972;11.662;2023-02-28T12:29:34;26.80;;;9.30;;
66437;SDS011;54537;47.972;11.662;2023-02-28T12:32:09;25.88;;;9.13;;
66437;SDS011;54537;47.972;11.662;2023-02-28T12:34:37;20.70;;;9.25;;
66437;SDS011;54537;47.972;11.662;2023-02-28T12:37:07;21.05;;;9.73;;
66437;SDS011;54537;47.972;11.662;2023-02-28T12:39:37;22.63;;;9.63;;
66437;SDS011;54537;47.972;11.662;2023-02-28T12:42:09;22.17;;;9.40;;
66437;SDS011;54537;47.972;11.662;2023-02-28T12:44:42;18.33;;;7.65;;
66437;SDS011;54537;47.972;11.662;2023-02-28T12:47:12;30.77;;;9.73;;
66437;SDS011;54537;47.972;11.662;2023-02-28T12:49:42;22.98;;;9.48;;
66437;SDS011;54537;47.972;11.662;2023-02-28T12:52:12;23.08;;;10.88;;
66437;SDS011;54537;47.972;11.662;2023-02-28T12:54:42;25.63;;;9.77;;
66437;SDS011;54537;47.972;11.662;2023-02-28T12:57:13;25.20;;;10.10;;
66437;SDS011;54537;47.972;11.662;2023-02-28T12:59:45;24.35;;;9.60;;
66437;SDS011;54537;47.972;11.662;2023-02-28T13:02:33;22.80;;;9.25;;
66437;SDS011;54537;47.972;11.662;2023-02-28T13:05:25;25.65;;;10.27;;
66437;SDS011;54537;47.972;11.662;2023-02-28T13:08:11;25.65;;;10.38;;
66437;SDS011;54537;47.972;11.662;2023-02-28T13:10:47;22.15;;;9.70;;
66437;SDS011;54537;47.972;11.662;2023-02-28T13:13:15;22.27;;;8.60;;
66437;SDS011;54537;47.972;11.662;2023-02-28T13:15:57;22.05;;;9.57;;
66437;SDS011;54537;47.972;11.662;2023-02-28T13:18:30;24.30;;;9.90;;
66437;SDS011;54537;47.972;11.662;2023-02-28T13:20:58;28.73;;;10.25;;
66437;SDS011;54537;47.972;11.662;2023-02-28T13:29:28;29.50;;;10.30;;
66437;SDS011;54537;47.972;11.662;2023-02-28T13:38:21;25.20;;;10.35;;
66437;SDS011;54537;47.972;11.662;2023-02-28T13:44:00;23.48;;;10.02;;
66437;SDS011;54537;47.972;11.662;2023-02-28T13:46:28;31.65;;;10.05;;
66437;SDS011;54537;47.972;11.662;2023-02-28T13:48:57;23.23;;;9.75;;
66437;SDS011;54537;47.972;11.662;2023-02-28T13:51:50;22.52;;;10.35;;
66437;SDS011;54537;47.972;11.662;2023-02-28T13:54:24;22.80;;;9.50;;
66437;SDS011;54537;47.972;11.662;2023-02-28T13:57:00;23.20;;;9.77;;
66437;SDS011;54537;47.972;11.662;2023-02-28T13:59:33;24.60;;;9.20;;
66437;SDS011;54537;47.972;11.662;2023-02-28T14:02:06;21.05;;;9.48;;
66437;SDS011;54537;47.972;11.662;2023-02-28T14:04:50;22.52;;;9.98;;
66437;SDS011;54537;47.972;11.662;2023-02-28T14:07:25;29.05;;;9.73;;
66437;SDS011;54537;47.972;11.662;2023-02-28T14:09:57;25.60;;;11.18;;
66437;SDS011;54537;47.972;11.662;2023-02-28T14:15:28;21.95;;;10.32;;
66437;SDS011;54537;47.972;11.662;2023-02-28T14:18:05;20.23;;;9.43;;
66437;SDS011;54537;47.972;11.662;2023-02-28T14:20:42;21.00;;;9.55;;
66437;SDS011;54537;47.972;11.662;2023-02-28T14:23:10;20.02;;;9.27;;
66437;SDS011;54537;47.972;11.662;2023-02-28T14:25:44;24.38;;;9.38;;
66437;SDS011;54537;47.972;11.662;2023-02-28T14:28:17;16.25;;;8.95;;
66437;SDS011;54537;47.972;11.662;2023-02-28T14:30:52;20.00;;;9.32;;
66437;SDS011;54537;47.972;11.662;2023-02-28T14:33:27;18.42;;;10.38;;
66437;SDS011;54537;47.972;11.662;2023-02-28T14:36:06;21.70;;;9.80;;
66437;SDS011;54537;47.972;11.662;2023-02-28T14:38:40;21.95;;;10.20;;
66437;SDS011;54537;47.972;11.662;2023-02-28T14:43:46;21.40;;;10.20;;
66437;SDS011;54537;47.972;11.662;2023-02-28T14:46:15;26.50;;;10.23;;
66437;SDS011;54537;47.972;11.662;2023-02-28T14:48:44;22.75;;;10.50;;
66437;SDS011;54537;47.972;11.662;2023-02-28T14:51:17;22.20;;;10.60;;
66437;SDS011;54537;47.972;11.662;2023-02-28T14:53:46;21.35;;;9.95;;
66437;SDS011;54537;47.972;11.662;2023-02-28T14:56:22;21.45;;;10.25;;
66437;SDS011;54537;47.972;11.662;2023-02-28T14:58:51;19.67;;;9.32;;
66437;SDS011;54537;47.972;11.662;2023-02-28T15:01:19;19.17;;;9.50;;
66437;SDS011;54537;47.972;11.662;2023-02-28T15:03:46;17.40;;;9.55;;
66437;SDS011;54537;47.972;11.662;2023-02-28T15:06:15;20.02;;;9.98;;
66437;SDS011;54537;47.972;11.662;2023-02-28T15:08:43;21.23;;;10.05;;
66437;SDS011;54537;47.972;11.662;2023-02-28T15:11:12;30.23;;;9.98;;